sensor_id;sensor_type;location;lat;lon;timestamp;P1;durP1;ratioP1;P2;durP2;ratioP2
72720;SDS011;60835;50.974;10.322;2023-06-22T00:00:00;8.80;;;5.35;;
72720;SDS011;60835;50.974;10.322;2023-06-22T00:02:26;13.95;;;5.30;;
72720;SDS011;60835;50.974;10.322;2023-06-22T00:04:53;7.30;;;5.25;;
72720;SDS011;60835;50.974;10.322;2023-06-22T00:07:19;11.18;;;4.78;;
72720;SDS011;60835;50.974;10.322;2023-06-22T00:09:46;8.90;;;5.32;;
72720;SDS011;60835;50.974;10.322;2023-06-22T00:12:12;11.48;;;5.22;;
72720;SDS011;60835;50.974;10.322;2023-06-22T00:14:39;9.55;;;5.55;;
72720;SDS011;60835;50.974;10.322;2023-06-22T00:17:05;6.55;;;5.18;;
72720;SDS011;60835;50.974;10.322;2023-06-22T00:19:32;8.48;;;5.30;;
72720;SDS011;60835;50.974;10.322;2023-06-22T00:22:02;10.00;;;5.30;;
72720;SDS011;60835;50.974;10.322;2023-06-22T00:24:29;11.35;;;5.15;;
72720;SDS011;60835;50.974;10.322;2023-06-22T00:26:56;8.10;;;5.03;;
72720;SDS011;60835;50.974;10.322;2023-06-22T00:29:22;10.68;;;5.95;;
72720;SDS011;60835;50.974;10.322;2023-06-22T00:31:51;13.82;;;5.20;;
72720;SDS011;60835;50.974;10.322;2023-06-22T00:34:18;9.02;;;5.10;;
72720;SDS011;60835;50.974;10.322;2023-06-22T00:36:44;7.05;;;4.78;;
72720;SDS011;60835;50.974;10.322;2023-06-22T00:39:11;7.13;;;5.13;;
72720;SDS011;60835;50.974;10.322;2023-06-22T00:41:38;9.25;;;5.70;;
72720;SDS011;60835;50.974;10.322;2023-06-22T00:44:05;9.38;;;5.35;;
72720;SDS011;60835;50.974;10.322;2023-06-22T00:46:32;10.55;;;6.07;;
72720;SDS011;60835;50.974;10.322;2023-06-22T00:48:59;9.90;;;5.38;;
72720;SDS011;60835;50.974;10.322;2023-06-22T00:51:26;7.07;;;5.32;;
72720;SDS011;60835;50.974;10.322;2023-06-22T00:53:52;8.10;;;5.93;;
72720;SDS011;60835;50.974;10.322;2023-06-22T00:56:19;9.23;;;5.53;;
72720;SDS011;60835;50.974;10.322;2023-06-22T00:58:51;10.35;;;5.25;;
72720;SDS011;60835;50.974;10.322;2023-06-22T01:01:19;8.27;;;4.95;;
72720;SDS011;60835;50.974;10.322;2023-06-22T01:03:50;8.93;;;5.55;;
72720;SDS011;60835;50.974;10.322;2023-06-22T01:06:22;7.60;;;5.13;;
72720;SDS011;60835;50.974;10.322;2023-06-22T01:09:02;9.68;;;6.03;;
72720;SDS011;60835;50.974;10.322;2023-06-22T01:11:41;8.85;;;5.22;;
72720;SDS011;60835;50.974;10.322;2023-06-22T01:14:14;9.32;;;5.50;;
72720;SDS011;60835;50.974;10.322;2023-06-22T01:16:45;11.95;;;5.47;;
72720;SDS011;60835;50.974;10.322;2023-06-22T01:21:57;7.88;;;5.47;;
72720;SDS011;60835;50.974;10.322;2023-06-22T01:24:27;7.20;;;5.38;;
72720;SDS011;60835;50.974;10.322;2023-06-22T01:29:52;7.13;;;5.07;;
72720;SDS011;60835;50.974;10.322;2023-06-22T01:32:30;7.32;;;5.50;;
72720;SDS011;60835;50.974;10.322;2023-06-22T01:35:00;9.27;;;6.25;;
72720;SDS011;60835;50.974;10.322;2023-06-22T01:37:27;9.27;;;5.82;;
72720;SDS011;60835;50.974;10.322;2023-06-22T01:39:55;9.45;;;5.80;;
72720;SDS011;60835;50.974;10.322;2023-06-22T01:42:23;11.20;;;5.55;;
72720;SDS011;60835;50.974;10.322;2023-06-22T01:44:52;9.13;;;5.90;;
72720;SDS011;60835;50.974;10.322;2023-06-22T01:47:22;8.13;;;5.32;;
72720;SDS011;60835;50.974;10.322;2023-06-22T01:49:50;9.02;;;5.95;;
72720;SDS011;60835;50.974;10.322;2023-06-22T01:52:18;9.05;;;5.55;;
72720;SDS011;60835;50.974;10.322;2023-06-22T01:54:47;8.55;;;5.22;;
72720;SDS011;60835;50.974;10.322;2023-06-22T01:57:14;6.93;;;5.10;;
72720;SDS011;60835;50.974;10.322;2023-06-22T02:02:36;9.20;;;5.47;;
72720;SDS011;60835;50.974;10.322;2023-06-22T02:05:07;7.25;;;5.60;;
72720;SDS011;60835;50.974;10.322;2023-06-22T02:07:41;6.32;;;4.88;;
72720;SDS011;60835;50.974;10.322;2023-06-22T02:10:13;7.55;;;5.20;;
72720;SDS011;60835;50.974;10.322;2023-06-22T02:12:45;10.18;;;5.80;;
72720;SDS011;60835;50.974;10.322;2023-06-22T02:15:13;7.38;;;4.82;;
72720;SDS011;60835;50.974;10.322;2023-06-22T02:17:40;8.52;;;5.20;;
72720;SDS011;60835;50.974;10.322;2023-06-22T02:20:14;7.38;;;4.97;;
72720;SDS011;60835;50.974;10.322;2023-06-22T02:22:41;8.35;;;5.43;;
72720;SDS011;60835;50.974;10.322;2023-06-22T02:25:08;8.95;;;5.43;;
72720;SDS011;60835;50.974;10.322;2023-06-22T02:27:34;8.82;;;5.53;;
72720;SDS011;60835;50.974;10.322;2023-06-22T02:30:01;7.32;;;5.65;;
72720;SDS011;60835;50.974;10.322;2023-06-22T02:32:27;8.55;;;5.93;;
72720;SDS011;60835;50.974;10.322;2023-06-22T02:34:54;9.23;;;6.30;;
72720;SDS011;60835;50.974;10.322;2023-06-22T02:37:20;8.85;;;5.93;;
72720;SDS011;60835;50.974;10.322;2023-06-22T02:39:51;9.85;;;5.55;;
72720;SDS011;60835;50.974;10.322;2023-06-22T02:42:17;7.90;;;5.65;;
72720;SDS011;60835;50.974;10.322;2023-06-22T02:44:46;10.95;;;5.32;;
72720;SDS011;60835;50.974;10.322;2023-06-22T02:47:13;11.43;;;4.97;;
72720;SDS011;60835;50.974;10.322;2023-06-22T02:49:40;10.10;;;5.88;;
72720;SDS011;60835;50.974;10.322;2023-06-22T02:52:07;7.38;;;5.20;;
72720;SDS011;60835;50.974;10.322;2023-06-22T02:54:33;9.45;;;5.70;;
72720;SDS011;60835;50.974;10.322;2023-06-22T02:57:00;10.70;;;5.18;;
72720;SDS011;60835;50.974;10.322;2023-06-22T02:59:29;9.43;;;5.30;;
72720;SDS011;60835;50.974;10.322;2023-06-22T03:01:58;6.57;;;4.95;;
72720;SDS011;60835;50.974;10.322;2023-06-22T03:04:25;6.97;;;5.38;;
72720;SDS011;60835;50.974;10.322;2023-06-22T03:06:51;6.97;;;5.50;;
72720;SDS011;60835;50.974;10.322;2023-06-22T03:09:18;10.93;;;5.82;;
72720;SDS011;60835;50.974;10.322;2023-06-22T03:11:44;14.90;;;10.10;;
72720;SDS011;60835;50.974;10.322;2023-06-22T03:14:11;10.07;;;6.18;;
72720;SDS011;60835;50.974;10.322;2023-06-22T03:16:37;20.48;;;12.98;;
72720;SDS011;60835;50.974;10.322;2023-06-22T03:19:04;15.60;;;9.73;;
72720;SDS011;60835;50.974;10.322;2023-06-22T03:21:30;12.25;;;6.18;;
72720;SDS011;60835;50.974;10.322;2023-06-22T03:23:58;10.05;;;5.50;;
72720;SDS011;60835;50.974;10.322;2023-06-22T03:26:24;11.38;;;6.13;;
72720;SDS011;60835;50.974;10.322;2023-06-22T03:28:53;10.50;;;6.05;;
72720;SDS011;60835;50.974;10.322;2023-06-22T03:31:19;9.93;;;6.35;;
72720;SDS011;60835;50.974;10.322;2023-06-22T03:33:51;9.73;;;6.15;;
72720;SDS011;60835;50.974;10.322;2023-06-22T03:36:18;7.93;;;5.88;;
72720;SDS011;60835;50.974;10.322;2023-06-22T03:38:48;11.38;;;5.97;;
72720;SDS011;60835;50.974;10.322;2023-06-22T03:41:16;8.77;;;6.25;;
72720;SDS011;60835;50.974;10.322;2023-06-22T03:43:43;8.80;;;6.03;;
72720;SDS011;60835;50.974;10.322;2023-06-22T03:46:10;10.35;;;5.38;;
72720;SDS011;60835;50.974;10.322;2023-06-22T03:48:37;6.97;;;5.57;;
72720;SDS011;60835;50.974;10.322;2023-06-22T03:51:04;9.52;;;6.20;;
72720;SDS011;60835;50.974;10.322;2023-06-22T03:53:30;9.90;;;6.35;;
72720;SDS011;60835;50.974;10.322;2023-06-22T03:55:57;9.43;;;5.28;;
72720;SDS011;60835;50.974;10.322;2023-06-22T03:58:24;12.80;;;5.95;;
72720;SDS011;60835;50.974;10.322;2023-06-22T04:00:51;9.93;;;6.68;;
72720;SDS011;60835;50.974;10.322;2023-06-22T04:03:19;11.90;;;5.93;;
72720;SDS011;60835;50.974;10.322;2023-06-22T04:05:46;12.57;;;6.30;;
72720;SDS011;60835;50.974;10.322;2023-06-22T04:08:15;10.43;;;6.15;;
72720;SDS011;60835;50.974;10.322;2023-06-22T04:10:43;9.65;;;6.30;;
72720;SDS011;60835;50.974;10.322;2023-06-22T04:13:09;9.50;;;7.05;;
72720;SDS011;60835;50.974;10.322;2023-06-22T04:15:36;10.02;;;5.80;;
72720;SDS011;60835;50.974;10.322;2023-06-22T04:18:02;7.90;;;6.15;;
72720;SDS011;60835;50.974;10.322;2023-06-22T04:20:30;8.40;;;5.75;;
72720;SDS011;60835;50.974;10.322;2023-06-22T04:22:58;11.95;;;6.00;;
72720;SDS011;60835;50.974;10.322;2023-06-22T04:25:24;13.32;;;6.90;;
72720;SDS011;60835;50.974;10.322;2023-06-22T04:27:51;7.85;;;5.88;;
72720;SDS011;60835;50.974;10.322;2023-06-22T04:30:18;13.73;;;6.70;;
72720;SDS011;60835;50.974;10.322;2023-06-22T04:32:44;10.02;;;6.22;;
72720;SDS011;60835;50.974;10.322;2023-06-22T04:35:11;11.45;;;6.72;;
72720;SDS011;60835;50.974;10.322;2023-06-22T04:37:38;14.90;;;6.60;;
72720;SDS011;60835;50.974;10.322;2023-06-22T04:40:05;13.10;;;6.88;;
72720;SDS011;60835;50.974;10.322;2023-06-22T04:42:34;11.70;;;7.18;;
72720;SDS011;60835;50.974;10.322;2023-06-22T04:45:03;11.25;;;6.53;;
72720;SDS011;60835;50.974;10.322;2023-06-22T04:47:30;9.00;;;6.45;;
72720;SDS011;60835;50.974;10.322;2023-06-22T04:49:57;7.25;;;5.88;;
72720;SDS011;60835;50.974;10.322;2023-06-22T04:52:23;9.93;;;6.10;;
72720;SDS011;60835;50.974;10.322;2023-06-22T04:54:51;10.10;;;6.00;;
72720;SDS011;60835;50.974;10.322;2023-06-22T04:57:22;10.88;;;6.32;;
72720;SDS011;60835;50.974;10.322;2023-06-22T04:59:59;11.50;;;6.25;;
72720;SDS011;60835;50.974;10.322;2023-06-22T05:02:40;10.57;;;6.53;;
72720;SDS011;60835;50.974;10.322;2023-06-22T05:05:08;13.00;;;6.78;;
72720;SDS011;60835;50.974;10.322;2023-06-22T05:07:35;12.57;;;6.28;;
72720;SDS011;60835;50.974;10.322;2023-06-22T05:10:03;11.27;;;6.15;;
72720;SDS011;60835;50.974;10.322;2023-06-22T05:12:30;9.15;;;5.90;;
72720;SDS011;60835;50.974;10.322;2023-06-22T05:14:56;8.63;;;5.75;;
72720;SDS011;60835;50.974;10.322;2023-06-22T05:17:23;11.43;;;5.97;;
72720;SDS011;60835;50.974;10.322;2023-06-22T05:19:50;11.93;;;6.68;;
72720;SDS011;60835;50.974;10.322;2023-06-22T05:22:17;9.32;;;6.20;;
72720;SDS011;60835;50.974;10.322;2023-06-22T05:24:44;11.57;;;6.07;;
72720;SDS011;60835;50.974;10.322;2023-06-22T05:27:11;9.65;;;6.32;;
72720;SDS011;60835;50.974;10.322;2023-06-22T05:29:37;10.25;;;5.95;;
72720;SDS011;60835;50.974;10.322;2023-06-22T05:32:04;11.35;;;5.85;;
72720;SDS011;60835;50.974;10.322;2023-06-22T05:34:35;12.05;;;6.65;;
72720;SDS011;60835;50.974;10.322;2023-06-22T05:37:02;12.52;;;6.43;;
72720;SDS011;60835;50.974;10.322;2023-06-22T05:39:29;11.80;;;6.72;;
72720;SDS011;60835;50.974;10.322;2023-06-22T05:41:55;11.38;;;6.68;;
72720;SDS011;60835;50.974;10.322;2023-06-22T05:44:22;8.88;;;6.30;;
72720;SDS011;60835;50.974;10.322;2023-06-22T05:46:48;10.75;;;6.75;;
72720;SDS011;60835;50.974;10.322;2023-06-22T05:49:15;10.75;;;6.53;;
72720;SDS011;60835;50.974;10.322;2023-06-22T05:51:42;9.50;;;6.53;;
72720;SDS011;60835;50.974;10.322;2023-06-22T05:54:09;13.02;;;6.47;;
72720;SDS011;60835;50.974;10.322;2023-06-22T05:56:36;13.02;;;6.75;;
72720;SDS011;60835;50.974;10.322;2023-06-22T05:59:03;8.20;;;5.97;;
72720;SDS011;60835;50.974;10.322;2023-06-22T06:01:30;8.98;;;6.13;;
72720;SDS011;60835;50.974;10.322;2023-06-22T06:04:02;9.23;;;6.03;;
72720;SDS011;60835;50.974;10.322;2023-06-22T06:06:30;10.02;;;6.35;;
72720;SDS011;60835;50.974;10.322;2023-06-22T06:08:57;12.02;;;6.45;;
72720;SDS011;60835;50.974;10.322;2023-06-22T06:11:23;10.73;;;6.53;;
72720;SDS011;60835;50.974;10.322;2023-06-22T06:13:50;9.05;;;6.78;;
72720;SDS011;60835;50.974;10.322;2023-06-22T06:16:17;11.75;;;6.68;;
72720;SDS011;60835;50.974;10.322;2023-06-22T06:18:44;9.25;;;5.70;;
72720;SDS011;60835;50.974;10.322;2023-06-22T06:21:10;10.85;;;6.70;;
72720;SDS011;60835;50.974;10.322;2023-06-22T06:23:36;11.82;;;6.68;;
72720;SDS011;60835;50.974;10.322;2023-06-22T06:26:03;12.50;;;7.03;;
72720;SDS011;60835;50.974;10.322;2023-06-22T06:28:33;12.02;;;6.43;;
72720;SDS011;60835;50.974;10.322;2023-06-22T06:31:00;8.57;;;5.93;;
72720;SDS011;60835;50.974;10.322;2023-06-22T06:33:26;8.65;;;6.85;;
72720;SDS011;60835;50.974;10.322;2023-06-22T06:35:53;8.75;;;6.55;;
72720;SDS011;60835;50.974;10.322;2023-06-22T06:38:21;11.95;;;5.82;;
72720;SDS011;60835;50.974;10.322;2023-06-22T06:40:48;9.70;;;5.50;;
72720;SDS011;60835;50.974;10.322;2023-06-22T06:43:15;12.65;;;6.53;;
72720;SDS011;60835;50.974;10.322;2023-06-22T06:45:42;10.98;;;6.10;;
72720;SDS011;60835;50.974;10.322;2023-06-22T06:48:08;10.75;;;6.35;;
72720;SDS011;60835;50.974;10.322;2023-06-22T06:50:35;11.15;;;6.60;;
72720;SDS011;60835;50.974;10.322;2023-06-22T06:53:02;8.48;;;5.60;;
72720;SDS011;60835;50.974;10.322;2023-06-22T06:55:29;9.85;;;6.10;;
72720;SDS011;60835;50.974;10.322;2023-06-22T06:57:59;10.05;;;6.22;;
72720;SDS011;60835;50.974;10.322;2023-06-22T07:00:26;10.00;;;5.85;;
72720;SDS011;60835;50.974;10.322;2023-06-22T07:02:53;9.70;;;6.47;;
72720;SDS011;60835;50.974;10.322;2023-06-22T07:05:20;9.63;;;5.95;;
72720;SDS011;60835;50.974;10.322;2023-06-22T07:07:50;10.35;;;6.47;;
72720;SDS011;60835;50.974;10.322;2023-06-22T07:10:16;9.77;;;6.28;;
72720;SDS011;60835;50.974;10.322;2023-06-22T07:12:43;9.63;;;5.38;;
72720;SDS011;60835;50.974;10.322;2023-06-22T07:15:09;7.20;;;5.65;;
72720;SDS011;60835;50.974;10.322;2023-06-22T07:17:37;10.18;;;6.40;;
72720;SDS011;60835;50.974;10.322;2023-06-22T07:20:07;10.10;;;7.20;;
72720;SDS011;60835;50.974;10.322;2023-06-22T07:22:39;11.10;;;6.90;;
72720;SDS011;60835;50.974;10.322;2023-06-22T07:25:08;8.43;;;6.50;;
72720;SDS011;60835;50.974;10.322;2023-06-22T07:27:36;12.07;;;7.38;;
72720;SDS011;60835;50.974;10.322;2023-06-22T07:30:04;9.20;;;6.43;;
72720;SDS011;60835;50.974;10.322;2023-06-22T07:32:31;10.52;;;6.30;;
72720;SDS011;60835;50.974;10.322;2023-06-22T07:34:58;13.52;;;6.32;;
72720;SDS011;60835;50.974;10.322;2023-06-22T07:37:24;10.00;;;5.75;;
72720;SDS011;60835;50.974;10.322;2023-06-22T07:39:53;9.27;;;6.15;;
72720;SDS011;60835;50.974;10.322;2023-06-22T07:42:25;11.50;;;6.47;;
72720;SDS011;60835;50.974;10.322;2023-06-22T07:44:52;7.80;;;6.05;;
72720;SDS011;60835;50.974;10.322;2023-06-22T07:47:19;9.85;;;5.68;;
72720;SDS011;60835;50.974;10.322;2023-06-22T07:49:46;11.85;;;7.13;;
72720;SDS011;60835;50.974;10.322;2023-06-22T07:52:13;9.63;;;6.93;;
72720;SDS011;60835;50.974;10.322;2023-06-22T07:54:39;9.35;;;6.80;;
72720;SDS011;60835;50.974;10.322;2023-06-22T07:57:06;10.70;;;7.07;;
72720;SDS011;60835;50.974;10.322;2023-06-22T07:59:32;16.75;;;6.70;;
72720;SDS011;60835;50.974;10.322;2023-06-22T08:02:00;11.88;;;5.97;;
72720;SDS011;60835;50.974;10.322;2023-06-22T08:04:28;7.95;;;6.78;;
72720;SDS011;60835;50.974;10.322;2023-06-22T08:06:55;10.23;;;6.97;;
72720;SDS011;60835;50.974;10.322;2023-06-22T08:09:22;9.07;;;6.78;;
72720;SDS011;60835;50.974;10.322;2023-06-22T08:11:48;8.88;;;6.93;;
72720;SDS011;60835;50.974;10.322;2023-06-22T08:14:15;9.65;;;7.45;;
72720;SDS011;60835;50.974;10.322;2023-06-22T08:16:41;10.43;;;7.13;;
72720;SDS011;60835;50.974;10.322;2023-06-22T08:19:08;8.40;;;6.75;;
72720;SDS011;60835;50.974;10.322;2023-06-22T08:21:35;8.70;;;6.72;;
72720;SDS011;60835;50.974;10.322;2023-06-22T08:24:02;7.35;;;6.05;;
72720;SDS011;60835;50.974;10.322;2023-06-22T08:26:29;10.40;;;7.45;;
72720;SDS011;60835;50.974;10.322;2023-06-22T08:28:55;10.38;;;7.50;;
72720;SDS011;60835;50.974;10.322;2023-06-22T08:31:22;17.58;;;7.18;;
72720;SDS011;60835;50.974;10.322;2023-06-22T08:33:49;9.63;;;6.88;;
72720;SDS011;60835;50.974;10.322;2023-06-22T08:36:15;8.23;;;6.35;;
72720;SDS011;60835;50.974;10.322;2023-06-22T08:38:42;9.93;;;6.45;;
72720;SDS011;60835;50.974;10.322;2023-06-22T08:41:09;11.32;;;7.13;;
72720;SDS011;60835;50.974;10.322;2023-06-22T08:43:35;9.98;;;6.72;;
72720;SDS011;60835;50.974;10.322;2023-06-22T08:46:02;10.02;;;6.38;;
72720;SDS011;60835;50.974;10.322;2023-06-22T08:48:29;7.13;;;6.00;;
72720;SDS011;60835;50.974;10.322;2023-06-22T08:50:55;8.05;;;6.47;;
72720;SDS011;60835;50.974;10.322;2023-06-22T08:53:22;10.48;;;6.38;;
72720;SDS011;60835;50.974;10.322;2023-06-22T08:55:49;9.00;;;7.13;;
72720;SDS011;60835;50.974;10.322;2023-06-22T08:58:17;8.27;;;6.88;;
72720;SDS011;60835;50.974;10.322;2023-06-22T09:00:44;10.32;;;6.80;;
72720;SDS011;60835;50.974;10.322;2023-06-22T09:03:11;8.20;;;6.63;;
72720;SDS011;60835;50.974;10.322;2023-06-22T09:05:38;9.50;;;6.85;;
72720;SDS011;60835;50.974;10.322;2023-06-22T09:08:05;13.27;;;7.80;;
72720;SDS011;60835;50.974;10.322;2023-06-22T09:10:32;9.45;;;6.82;;
72720;SDS011;60835;50.974;10.322;2023-06-22T09:12:59;9.93;;;7.47;;
72720;SDS011;60835;50.974;10.322;2023-06-22T09:15:25;7.88;;;7.00;;
72720;SDS011;60835;50.974;10.322;2023-06-22T09:17:52;10.50;;;6.40;;
72720;SDS011;60835;50.974;10.322;2023-06-22T09:20:20;7.90;;;6.57;;
72720;SDS011;60835;50.974;10.322;2023-06-22T09:22:47;8.00;;;6.78;;
72720;SDS011;60835;50.974;10.322;2023-06-22T09:25:14;11.63;;;6.50;;
72720;SDS011;60835;50.974;10.322;2023-06-22T09:27:40;8.10;;;6.15;;
72720;SDS011;60835;50.974;10.322;2023-06-22T09:30:07;9.45;;;6.32;;
72720;SDS011;60835;50.974;10.322;2023-06-22T09:32:34;7.90;;;6.47;;
72720;SDS011;60835;50.974;10.322;2023-06-22T09:35:03;10.35;;;7.10;;
72720;SDS011;60835;50.974;10.322;2023-06-22T09:37:32;7.35;;;6.28;;
72720;SDS011;60835;50.974;10.322;2023-06-22T09:39:58;10.60;;;7.00;;
72720;SDS011;60835;50.974;10.322;2023-06-22T09:42:25;7.93;;;6.63;;
72720;SDS011;60835;50.974;10.322;2023-06-22T09:44:51;8.68;;;6.63;;
72720;SDS011;60835;50.974;10.322;2023-06-22T09:47:18;7.85;;;6.13;;
72720;SDS011;60835;50.974;10.322;2023-06-22T09:49:44;8.52;;;6.32;;
72720;SDS011;60835;50.974;10.322;2023-06-22T09:52:14;7.10;;;6.10;;
72720;SDS011;60835;50.974;10.322;2023-06-22T09:54:40;9.70;;;6.25;;
72720;SDS011;60835;50.974;10.322;2023-06-22T09:57:07;7.55;;;6.80;;
72720;SDS011;60835;50.974;10.322;2023-06-22T09:59:33;9.18;;;6.90;;
72720;SDS011;60835;50.974;10.322;2023-06-22T10:02:00;9.00;;;6.25;;
72720;SDS011;60835;50.974;10.322;2023-06-22T10:04:27;7.07;;;5.90;;
72720;SDS011;60835;50.974;10.322;2023-06-22T10:06:54;8.20;;;6.68;;
72720;SDS011;60835;50.974;10.322;2023-06-22T10:09:20;8.10;;;6.40;;
72720;SDS011;60835;50.974;10.322;2023-06-22T10:11:48;11.10;;;6.20;;
72720;SDS011;60835;50.974;10.322;2023-06-22T10:14:14;7.85;;;6.38;;
72720;SDS011;60835;50.974;10.322;2023-06-22T10:16:41;9.80;;;6.72;;
72720;SDS011;60835;50.974;10.322;2023-06-22T10:19:08;9.90;;;6.07;;
72720;SDS011;60835;50.974;10.322;2023-06-22T10:21:34;10.18;;;6.43;;
72720;SDS011;60835;50.974;10.322;2023-06-22T10:24:01;9.07;;;6.30;;
72720;SDS011;60835;50.974;10.322;2023-06-22T10:26:33;9.40;;;6.57;;
72720;SDS011;60835;50.974;10.322;2023-06-22T10:29:00;10.30;;;6.75;;
72720;SDS011;60835;50.974;10.322;2023-06-22T10:31:41;10.93;;;6.93;;
72720;SDS011;60835;50.974;10.322;2023-06-22T10:34:08;9.35;;;6.53;;
72720;SDS011;60835;50.974;10.322;2023-06-22T10:36:35;9.77;;;6.75;;
72720;SDS011;60835;50.974;10.322;2023-06-22T10:39:01;11.73;;;6.55;;
72720;SDS011;60835;50.974;10.322;2023-06-22T10:41:29;8.95;;;6.25;;
72720;SDS011;60835;50.974;10.322;2023-06-22T10:43:56;7.95;;;6.30;;
72720;SDS011;60835;50.974;10.322;2023-06-22T10:46:26;9.85;;;6.15;;
72720;SDS011;60835;50.974;10.322;2023-06-22T10:48:54;9.80;;;6.05;;
72720;SDS011;60835;50.974;10.322;2023-06-22T10:51:22;10.50;;;7.15;;
72720;SDS011;60835;50.974;10.322;2023-06-22T10:53:48;7.57;;;6.63;;
72720;SDS011;60835;50.974;10.322;2023-06-22T10:56:15;10.10;;;6.75;;
72720;SDS011;60835;50.974;10.322;2023-06-22T10:58:41;13.02;;;8.07;;
72720;SDS011;60835;50.974;10.322;2023-06-22T11:01:09;9.63;;;6.68;;
72720;SDS011;60835;50.974;10.322;2023-06-22T11:03:55;11.65;;;6.72;;
72720;SDS011;60835;50.974;10.322;2023-06-22T11:06:22;11.55;;;6.45;;
72720;SDS011;60835;50.974;10.322;2023-06-22T11:08:48;10.10;;;7.25;;
72720;SDS011;60835;50.974;10.322;2023-06-22T11:11:32;9.75;;;6.72;;
72720;SDS011;60835;50.974;10.322;2023-06-22T11:13:59;7.50;;;6.53;;
72720;SDS011;60835;50.974;10.322;2023-06-22T11:16:25;7.90;;;6.70;;
72720;SDS011;60835;50.974;10.322;2023-06-22T11:18:52;10.90;;;7.35;;
72720;SDS011;60835;50.974;10.322;2023-06-22T11:21:18;7.35;;;6.40;;
72720;SDS011;60835;50.974;10.322;2023-06-22T11:23:45;10.52;;;6.97;;
72720;SDS011;60835;50.974;10.322;2023-06-22T11:26:12;10.98;;;7.55;;
72720;SDS011;60835;50.974;10.322;2023-06-22T11:28:38;13.85;;;7.20;;
72720;SDS011;60835;50.974;10.322;2023-06-22T11:31:05;16.98;;;7.38;;
72720;SDS011;60835;50.974;10.322;2023-06-22T11:33:50;16.20;;;7.82;;
72720;SDS011;60835;50.974;10.322;2023-06-22T11:36:18;9.77;;;7.78;;
72720;SDS011;60835;50.974;10.322;2023-06-22T11:38:45;14.20;;;7.20;;
72720;SDS011;60835;50.974;10.322;2023-06-22T11:41:12;9.48;;;7.03;;
72720;SDS011;60835;50.974;10.322;2023-06-22T11:43:39;12.50;;;7.25;;
72720;SDS011;60835;50.974;10.322;2023-06-22T11:46:05;8.52;;;6.82;;
72720;SDS011;60835;50.974;10.322;2023-06-22T11:48:32;8.07;;;6.65;;
72720;SDS011;60835;50.974;10.322;2023-06-22T11:50:59;12.40;;;6.53;;
72720;SDS011;60835;50.974;10.322;2023-06-22T11:53:26;11.93;;;7.13;;
72720;SDS011;60835;50.974;10.322;2023-06-22T11:55:53;12.35;;;7.72;;
72720;SDS011;60835;50.974;10.322;2023-06-22T11:58:21;7.50;;;6.72;;
72720;SDS011;60835;50.974;10.322;2023-06-22T12:00:49;9.25;;;7.40;;
72720;SDS011;60835;50.974;10.322;2023-06-22T12:03:18;9.20;;;7.68;;
72720;SDS011;60835;50.974;10.322;2023-06-22T12:05:45;9.85;;;7.35;;
72720;SDS011;60835;50.974;10.322;2023-06-22T12:08:12;12.18;;;7.82;;
72720;SDS011;60835;50.974;10.322;2023-06-22T12:10:40;9.98;;;7.40;;
72720;SDS011;60835;50.974;10.322;2023-06-22T12:13:06;11.68;;;7.13;;
72720;SDS011;60835;50.974;10.322;2023-06-22T12:15:33;9.50;;;7.00;;
72720;SDS011;60835;50.974;10.322;2023-06-22T12:18:00;9.77;;;7.50;;
72720;SDS011;60835;50.974;10.322;2023-06-22T12:20:27;11.82;;;7.10;;
72720;SDS011;60835;50.974;10.322;2023-06-22T12:22:55;9.98;;;7.88;;
72720;SDS011;60835;50.974;10.322;2023-06-22T12:25:24;10.50;;;7.18;;
72720;SDS011;60835;50.974;10.322;2023-06-22T12:27:51;11.60;;;7.47;;
72720;SDS011;60835;50.974;10.322;2023-06-22T12:30:17;12.45;;;7.22;;
72720;SDS011;60835;50.974;10.322;2023-06-22T12:32:45;11.70;;;7.63;;
72720;SDS011;60835;50.974;10.322;2023-06-22T12:35:12;8.05;;;7.25;;
72720;SDS011;60835;50.974;10.322;2023-06-22T12:37:43;11.27;;;7.82;;
72720;SDS011;60835;50.974;10.322;2023-06-22T12:40:10;8.75;;;7.50;;
72720;SDS011;60835;50.974;10.322;2023-06-22T12:42:37;9.43;;;7.60;;
72720;SDS011;60835;50.974;10.322;2023-06-22T12:45:04;8.80;;;7.90;;
72720;SDS011;60835;50.974;10.322;2023-06-22T12:47:31;12.57;;;7.70;;
72720;SDS011;60835;50.974;10.322;2023-06-22T12:49:57;11.95;;;7.70;;
72720;SDS011;60835;50.974;10.322;2023-06-22T12:52:24;8.27;;;7.30;;
72720;SDS011;60835;50.974;10.322;2023-06-22T12:54:50;9.38;;;7.60;;
72720;SDS011;60835;50.974;10.322;2023-06-22T12:57:21;10.43;;;7.28;;
72720;SDS011;60835;50.974;10.322;2023-06-22T12:59:49;10.52;;;7.38;;
72720;SDS011;60835;50.974;10.322;2023-06-22T13:02:16;13.23;;;7.47;;
72720;SDS011;60835;50.974;10.322;2023-06-22T13:04:43;8.63;;;7.28;;
72720;SDS011;60835;50.974;10.322;2023-06-22T13:07:10;10.45;;;6.85;;
72720;SDS011;60835;50.974;10.322;2023-06-22T13:09:48;12.68;;;7.22;;
72720;SDS011;60835;50.974;10.322;2023-06-22T13:12:19;8.85;;;7.53;;
72720;SDS011;60835;50.974;10.322;2023-06-22T13:14:47;8.35;;;7.00;;
72720;SDS011;60835;50.974;10.322;2023-06-22T13:17:14;9.63;;;7.07;;
72720;SDS011;60835;50.974;10.322;2023-06-22T13:19:41;9.45;;;7.95;;
72720;SDS011;60835;50.974;10.322;2023-06-22T13:25:06;8.27;;;7.35;;
72720;SDS011;60835;50.974;10.322;2023-06-22T13:27:36;11.55;;;7.75;;
72720;SDS011;60835;50.974;10.322;2023-06-22T13:30:03;12.23;;;7.30;;
72720;SDS011;60835;50.974;10.322;2023-06-22T13:32:30;8.27;;;7.13;;
72720;SDS011;60835;50.974;10.322;2023-06-22T13:34:56;10.27;;;7.40;;
72720;SDS011;60835;50.974;10.322;2023-06-22T13:37:23;9.25;;;7.22;;
72720;SDS011;60835;50.974;10.322;2023-06-22T13:39:49;10.48;;;6.70;;
72720;SDS011;60835;50.974;10.322;2023-06-22T13:42:16;12.70;;;6.93;;
72720;SDS011;60835;50.974;10.322;2023-06-22T13:44:42;13.65;;;7.55;;
72720;SDS011;60835;50.974;10.322;2023-06-22T13:47:09;11.77;;;7.18;;
72720;SDS011;60835;50.974;10.322;2023-06-22T13:49:35;13.57;;;7.65;;
72720;SDS011;60835;50.974;10.322;2023-06-22T13:52:02;12.05;;;7.38;;
72720;SDS011;60835;50.974;10.322;2023-06-22T13:54:30;10.02;;;7.35;;
72720;SDS011;60835;50.974;10.322;2023-06-22T13:56:59;14.25;;;7.85;;
72720;SDS011;60835;50.974;10.322;2023-06-22T13:59:26;10.27;;;7.13;;
72720;SDS011;60835;50.974;10.322;2023-06-22T14:01:54;14.95;;;8.15;;
72720;SDS011;60835;50.974;10.322;2023-06-22T14:04:21;12.15;;;7.97;;
72720;SDS011;60835;50.974;10.322;2023-06-22T14:06:49;12.02;;;7.60;;
72720;SDS011;60835;50.974;10.322;2023-06-22T14:09:15;10.95;;;7.75;;
72720;SDS011;60835;50.974;10.322;2023-06-22T14:11:42;10.90;;;7.43;;
72720;SDS011;60835;50.974;10.322;2023-06-22T14:14:09;10.23;;;7.75;;
72720;SDS011;60835;50.974;10.322;2023-06-22T14:16:35;12.02;;;7.22;;
72720;SDS011;60835;50.974;10.322;2023-06-22T14:19:02;13.35;;;6.57;;
72720;SDS011;60835;50.974;10.322;2023-06-22T14:21:28;10.02;;;6.45;;
72720;SDS011;60835;50.974;10.322;2023-06-22T14:23:55;14.20;;;7.55;;
72720;SDS011;60835;50.974;10.322;2023-06-22T14:26:21;12.98;;;7.75;;
72720;SDS011;60835;50.974;10.322;2023-06-22T14:28:48;12.27;;;7.70;;
72720;SDS011;60835;50.974;10.322;2023-06-22T14:31:18;11.82;;;8.20;;
72720;SDS011;60835;50.974;10.322;2023-06-22T14:33:46;10.40;;;7.15;;
72720;SDS011;60835;50.974;10.322;2023-06-22T14:36:14;10.95;;;7.68;;
72720;SDS011;60835;50.974;10.322;2023-06-22T14:38:42;12.38;;;7.50;;
72720;SDS011;60835;50.974;10.322;2023-06-22T14:41:08;13.10;;;8.23;;